createdAt,value
2023-05-04T00:02:06.304Z,11.15
2023-05-04T00:05:08.990Z,11.12
2023-05-04T00:08:11.685Z,11.08
2023-05-04T00:11:14.396Z,10.95
2023-05-04T00:14:16.960Z,10.93
2023-05-04T00:17:19.724Z,10.76
2023-05-04T00:20:22.496Z,10.90
2023-05-04T00:23:24.890Z,10.89
2023-05-04T00:26:27.314Z,10.97
2023-05-04T00:29:30.498Z,10.77
2023-05-04T00:32:33.142Z,10.68
2023-05-04T00:35:35.657Z,10.71
2023-05-04T00:38:52.343Z,10.81
2023-05-04T00:41:54.806Z,10.79
2023-05-04T00:44:57.209Z,10.76
2023-05-04T00:47:59.701Z,10.79
2023-05-04T00:51:04.125Z,10.84
2023-05-04T00:54:06.701Z,10.63
2023-05-04T00:57:09.216Z,10.58
2023-05-04T01:00:13.348Z,10.54
2023-05-04T01:03:18.928Z,10.54
2023-05-04T01:06:40.799Z,10.73
2023-05-04T01:10:25.419Z,10.66
2023-05-04T01:13:28.346Z,10.41
2023-05-04T01:16:30.853Z,10.55
2023-05-04T01:19:34.203Z,10.60
2023-05-04T01:22:39.039Z,10.54
2023-05-04T01:25:52.065Z,10.50
2023-05-04T01:29:24.294Z,10.45
2023-05-04T01:32:31.903Z,10.31
2023-05-04T01:35:34.639Z,10.43
2023-05-04T01:38:37.071Z,10.29
2023-05-04T01:41:39.488Z,10.43
2023-05-04T01:44:41.847Z,10.26
2023-05-04T01:47:44.853Z,10.15
2023-05-04T01:50:48.032Z,10.23
2023-05-04T01:53:50.625Z,10.21
2023-05-04T01:56:53.133Z,10.38
2023-05-04T01:59:55.754Z,10.17
2023-05-04T02:02:58.325Z,10.31
2023-05-04T02:06:00.750Z,10.36
2023-05-04T02:09:03.626Z,10.24
2023-05-04T02:12:06.041Z,10.39
2023-05-04T02:15:08.767Z,10.29
2023-05-04T02:18:11.259Z,10.29
2023-05-04T02:21:14.004Z,10.25
2023-05-04T02:24:19.629Z,10.30
2023-05-04T02:27:22.042Z,10.15
2023-05-04T02:30:24.996Z,10.45
2023-05-04T02:33:27.564Z,10.27
2023-05-04T02:36:30.030Z,10.47
2023-05-04T02:39:32.428Z,10.26
2023-05-04T02:42:35.236Z,10.48
2023-05-04T02:45:37.827Z,10.34
2023-05-04T02:48:40.263Z,10.50
2023-05-04T02:51:43.284Z,10.29
2023-05-04T02:54:46.195Z,10.38
2023-05-04T02:57:48.689Z,10.36
2023-05-04T03:00:55.827Z,10.38
2023-05-04T03:03:58.260Z,10.36
2023-05-04T03:07:00.889Z,10.55
2023-05-04T03:10:03.629Z,10.53
2023-05-04T03:13:06.852Z,10.52
2023-05-04T03:16:09.944Z,10.53
2023-05-04T03:19:12.430Z,10.32
2023-05-04T03:22:15.047Z,10.47
2023-05-04T03:25:19.274Z,10.28
2023-05-04T03:28:21.712Z,10.42
2023-05-04T03:31:24.462Z,10.45
2023-05-04T03:34:28.511Z,10.32
2023-05-04T03:37:36.381Z,10.47
2023-05-04T03:40:40.039Z,10.33
2023-05-04T03:43:42.571Z,10.52
2023-05-04T03:46:45.961Z,10.38
2023-05-04T03:49:48.487Z,10.54
2023-05-04T03:52:51.776Z,10.54
2023-05-04T03:55:56.894Z,10.63
2023-05-04T03:58:59.975Z,10.61
2023-05-04T04:02:10.132Z,10.67
2023-05-04T04:05:12.621Z,10.77
2023-05-04T04:08:15.333Z,10.80
2023-05-04T04:11:17.752Z,10.71
2023-05-04T04:14:20.330Z,10.82
2023-05-04T04:17:22.754Z,10.94
2023-05-04T04:20:29.088Z,10.93
2023-05-04T04:23:31.584Z,10.85
2023-05-04T04:26:34.208Z,11.02
2023-05-04T04:29:36.846Z,10.83
2023-05-04T04:32:39.598Z,11.12
2023-05-04T04:35:42.159Z,10.94
2023-05-04T04:38:44.811Z,11.24
2023-05-04T04:41:47.553Z,11.18
2023-05-04T04:44:49.960Z,11.33
2023-05-04T04:47:52.504Z,11.26
2023-05-04T04:50:56.020Z,11.40
2023-05-04T04:53:58.453Z,11.45
2023-05-04T04:57:00.876Z,11.59
2023-05-04T05:00:07.907Z,11.51
2023-05-04T05:03:11.090Z,11.80
2023-05-04T05:06:14.148Z,11.82
2023-05-04T05:09:16.871Z,11.99
2023-05-04T05:12:19.371Z,12.08
2023-05-04T05:15:21.758Z,12.18
2023-05-04T05:18:24.931Z,12.21
2023-05-04T05:21:27.394Z,12.34
2023-05-04T05:24:29.760Z,12.55
2023-05-04T05:27:33.514Z,12.61
2023-05-04T05:30:38.085Z,12.83
2023-05-04T05:33:40.631Z,13.20
2023-05-04T05:36:43.546Z,13.50
2023-05-04T05:39:45.942Z,13.99
2023-05-04T05:42:49.014Z,14.84
2023-05-04T05:45:51.457Z,15.51
2023-05-04T05:48:54.042Z,16.28
2023-05-04T05:51:57.140Z,16.92
2023-05-04T05:55:02.262Z,17.34
2023-05-04T05:58:08.703Z,17.13
2023-05-04T06:01:11.396Z,16.36
2023-05-04T06:04:14.038Z,15.40
2023-05-04T06:07:16.598Z,14.88
2023-05-04T06:10:18.985Z,14.93
2023-05-04T06:13:21.582Z,15.05
2023-05-04T06:16:24.183Z,15.18
2023-05-04T06:19:28.066Z,15.91
2023-05-04T06:22:32.002Z,17.33
2023-05-04T06:25:34.474Z,18.35
2023-05-04T06:28:36.943Z,18.43
2023-05-04T06:31:39.462Z,17.33
2023-05-04T06:34:41.903Z,16.18
2023-05-04T06:37:44.323Z,15.88
2023-05-04T06:40:47.760Z,15.51
2023-05-04T06:43:50.215Z,15.51
2023-05-04T06:46:52.663Z,15.42
2023-05-04T06:49:55.136Z,15.63
2023-05-04T06:53:09.037Z,15.49
2023-05-04T06:56:11.695Z,15.28
2023-05-04T06:59:14.206Z,15.33
2023-05-04T07:02:17.160Z,15.27
2023-05-04T07:05:22.981Z,15.62
2023-05-04T07:08:25.565Z,15.63
2023-05-04T07:11:28.710Z,15.68
2023-05-04T07:14:31.187Z,15.45
2023-05-04T07:17:33.589Z,15.19
2023-05-04T07:20:37.182Z,15.29
2023-05-04T07:23:39.730Z,15.30
2023-05-04T07:26:42.087Z,15.32
2023-05-04T07:29:44.521Z,15.22
2023-05-04T07:32:46.970Z,15.51
2023-05-04T07:35:49.398Z,15.75
2023-05-04T07:38:52.418Z,15.62
2023-05-04T07:41:55.132Z,15.90
2023-05-04T07:44:57.932Z,15.87
2023-05-04T07:48:00.644Z,15.76
2023-05-04T07:51:03.569Z,15.82
2023-05-04T07:54:06.035Z,15.98
2023-05-04T07:57:08.445Z,15.66
2023-05-04T08:00:11.610Z,15.33
2023-05-04T08:03:16.796Z,15.46
2023-05-04T08:06:19.353Z,15.61
2023-05-04T08:09:21.735Z,15.26
2023-05-04T08:12:26.906Z,15.42
2023-05-04T08:15:29.369Z,15.51
2023-05-04T08:18:31.766Z,15.55
2023-05-04T08:21:34.213Z,15.96
2023-05-04T08:24:36.793Z,15.80
2023-05-04T08:27:39.473Z,15.79
2023-05-04T08:30:42.658Z,15.83
2023-05-04T08:33:48.580Z,15.89
2023-05-04T08:36:52.703Z,15.93
2023-05-04T08:39:55.111Z,15.85
2023-05-04T08:42:57.631Z,15.75
2023-05-04T08:46:00.184Z,15.85
2023-05-04T08:49:02.670Z,15.68
2023-05-04T08:52:07.937Z,15.64
2023-05-04T08:55:12.071Z,15.53
2023-05-04T08:58:17.583Z,15.41
2023-05-04T09:01:22.227Z,15.43
2023-05-04T09:04:29.253Z,15.67
2023-05-04T09:07:32.728Z,15.64
2023-05-04T09:10:35.587Z,15.64
2023-05-04T09:13:38.767Z,15.61
2023-05-04T09:16:41.727Z,15.38
2023-05-04T09:19:44.987Z,15.53
2023-05-04T09:22:48.206Z,15.71
2023-05-04T09:25:55.291Z,16.00
2023-05-04T09:29:09.886Z,16.12
2023-05-04T09:32:15.278Z,16.31
2023-05-04T09:35:32.029Z,16.78
2023-05-04T09:38:35.544Z,16.97
2023-05-04T09:41:38.540Z,17.39
2023-05-04T09:44:40.964Z,17.34
2023-05-04T09:47:44.245Z,17.61
2023-05-04T09:50:58.407Z,17.77
2023-05-04T09:54:06.362Z,18.76
2023-05-04T09:57:11.838Z,19.51
2023-05-04T10:00:17.281Z,19.19
2023-05-04T10:03:21.469Z,20.20
2023-05-04T10:06:24.770Z,19.94
2023-05-04T10:09:29.952Z,19.83
2023-05-04T10:12:32.480Z,21.71
2023-05-04T10:15:36.471Z,24.30
2023-05-04T10:19:03.908Z,25.75
2023-05-04T10:22:25.042Z,26.25
2023-05-04T10:25:33.186Z,26.26
2023-05-04T10:29:06.870Z,27.37
2023-05-04T10:32:27.768Z,28.07
2023-05-04T10:35:30.280Z,28.10
2023-05-04T10:38:37.283Z,27.60
2023-05-04T10:41:39.683Z,27.83
2023-05-04T10:44:53.350Z,27.52
2023-05-04T10:47:58.291Z,27.60
2023-05-04T10:51:05.551Z,28.06
2023-05-04T10:54:17.770Z,27.74
2023-05-04T10:57:20.152Z,27.78
2023-05-04T11:00:35.328Z,28.10
2023-05-04T11:03:40.991Z,28.52
2023-05-04T11:06:44.055Z,28.49
2023-05-04T11:09:46.503Z,28.48
2023-05-04T11:12:49.092Z,27.89
2023-05-04T11:15:52.212Z,27.59
2023-05-04T11:18:55.405Z,27.36
2023-05-04T11:21:58.517Z,27.22
2023-05-04T11:25:00.902Z,27.52
2023-05-04T11:28:03.942Z,28.23
2023-05-04T11:31:20.039Z,27.83
2023-05-04T11:34:22.495Z,27.62
2023-05-04T11:37:25.003Z,27.81
2023-05-04T11:40:29.080Z,27.66
2023-05-04T11:43:33.526Z,27.89
2023-05-04T11:46:36.419Z,28.26
2023-05-04T11:49:39.659Z,27.88
2023-05-04T11:52:42.264Z,27.74
2023-05-04T11:55:44.641Z,27.82
2023-05-04T11:58:47.024Z,28.28
2023-05-04T12:01:49.683Z,27.46
2023-05-04T12:04:52.720Z,27.23
2023-05-04T12:07:55.154Z,27.49
2023-05-04T12:11:16.514Z,27.68
2023-05-04T12:14:19.381Z,27.47
2023-05-04T12:17:22.043Z,27.71
2023-05-04T12:20:28.309Z,26.88
2023-05-04T12:23:30.833Z,27.55
2023-05-04T12:26:33.411Z,27.33
2023-05-04T12:29:35.978Z,26.74
2023-05-04T12:32:38.693Z,26.61
2023-05-04T12:35:41.126Z,26.94
2023-05-04T12:38:43.548Z,27.06
2023-05-04T12:41:45.947Z,27.08
2023-05-04T12:44:48.357Z,27.38
2023-05-04T12:47:50.836Z,27.28
2023-05-04T12:50:54.589Z,27.48
2023-05-04T12:53:58.181Z,27.31
2023-05-04T12:57:02.338Z,27.37
2023-05-04T13:00:08.581Z,26.25
2023-05-04T13:03:13.178Z,26.62
2023-05-04T13:06:16.009Z,26.37
2023-05-04T13:09:20.170Z,26.65
2023-05-04T13:12:22.901Z,26.68
2023-05-04T13:15:25.403Z,26.20
2023-05-04T13:18:28.085Z,25.78
2023-05-04T13:21:30.525Z,25.81
2023-05-04T13:24:33.036Z,25.98
2023-05-04T13:27:35.519Z,26.32
2023-05-04T13:30:43.691Z,25.64
2023-05-04T13:33:46.872Z,25.97
2023-05-04T13:36:49.266Z,25.86
2023-05-04T13:39:51.718Z,25.86
2023-05-04T13:42:54.072Z,25.66
2023-05-04T13:45:57.376Z,25.57
2023-05-04T13:48:59.824Z,24.46
2023-05-04T13:52:02.796Z,23.52
2023-05-04T13:55:06.072Z,23.17
2023-05-04T13:58:08.629Z,23.61
2023-05-04T14:01:13.373Z,22.16
2023-05-04T14:04:16.206Z,21.26
2023-05-04T14:07:18.790Z,20.77
2023-05-04T14:10:22.255Z,20.64
2023-05-04T14:13:24.785Z,20.97
2023-05-04T14:16:27.716Z,21.89
2023-05-04T14:19:30.184Z,23.02
2023-05-04T14:22:32.655Z,23.57
2023-05-04T14:25:35.094Z,23.25
2023-05-04T14:28:38.207Z,23.48
2023-05-04T14:31:40.880Z,23.80
2023-05-04T14:34:43.342Z,23.83
2023-05-04T14:37:46.714Z,23.68
2023-05-04T14:40:49.843Z,23.16
2023-05-04T14:43:52.519Z,22.91
2023-05-04T14:46:55.614Z,22.56
2023-05-04T14:49:58.062Z,22.47
2023-05-04T14:53:00.920Z,22.43
2023-05-04T14:56:03.988Z,22.23
2023-05-04T14:59:06.790Z,22.18
2023-05-04T15:02:09.372Z,21.94
2023-05-04T15:05:12.780Z,21.70
2023-05-04T15:08:15.389Z,21.33
2023-05-04T15:11:19.390Z,20.96
2023-05-04T15:14:21.984Z,20.53
2023-05-04T15:17:24.386Z,20.71
2023-05-04T15:20:29.206Z,20.46
2023-05-04T15:23:31.745Z,20.47
2023-05-04T15:26:34.697Z,20.45
2023-05-04T15:29:37.155Z,20.15
2023-05-04T15:32:39.572Z,19.84
2023-05-04T15:35:41.978Z,19.84
2023-05-04T15:38:44.350Z,19.65
2023-05-04T15:41:46.930Z,19.60
2023-05-04T15:44:49.681Z,19.38
2023-05-04T15:47:54.195Z,19.11
2023-05-04T15:50:58.954Z,19.31
2023-05-04T15:54:01.901Z,19.03
2023-05-04T15:57:04.427Z,18.97
2023-05-04T16:00:09.132Z,18.73
2023-05-04T16:03:15.146Z,18.69
2023-05-04T16:06:17.999Z,18.46
2023-05-04T16:09:20.804Z,18.45
2023-05-04T16:12:23.308Z,18.23
2023-05-04T16:15:26.056Z,18.08
2023-05-04T16:18:28.466Z,17.97
2023-05-04T16:21:31.394Z,17.83
2023-05-04T16:24:34.454Z,17.50
2023-05-04T16:27:36.864Z,17.57
2023-05-04T16:30:43.193Z,17.42
2023-05-04T16:33:47.843Z,17.36
2023-05-04T16:36:50.476Z,17.30
2023-05-04T16:39:54.397Z,17.23
2023-05-04T16:42:56.834Z,17.00
2023-05-04T16:45:59.266Z,16.94
2023-05-04T16:49:01.822Z,16.88
2023-05-04T16:52:05.036Z,16.76
2023-05-04T16:55:11.282Z,16.63
2023-05-04T16:58:14.735Z,16.52
2023-05-04T17:01:18.402Z,16.46
2023-05-04T17:04:20.879Z,16.31
2023-05-04T17:07:23.366Z,16.00
2023-05-04T17:10:26.554Z,16.07
2023-05-04T17:13:28.934Z,15.77
2023-05-04T17:16:31.528Z,15.88
2023-05-04T17:19:34.077Z,15.72
2023-05-04T17:22:36.973Z,15.53
2023-05-04T17:25:39.453Z,15.33
2023-05-04T17:28:42.166Z,15.21
2023-05-04T17:31:44.580Z,15.03
2023-05-04T17:34:47.089Z,15.08
2023-05-04T17:37:49.451Z,15.00
2023-05-04T17:40:53.452Z,14.91
2023-05-04T17:43:56.835Z,14.66
2023-05-04T17:47:00.218Z,14.62
2023-05-04T17:50:03.111Z,14.50
2023-05-04T17:53:06.059Z,14.57
2023-05-04T17:56:08.445Z,14.39
2023-05-04T17:59:11.156Z,14.35
2023-05-04T18:02:14.065Z,14.37
2023-05-04T18:05:16.625Z,14.29
2023-05-04T18:08:19.011Z,14.09
2023-05-04T18:11:21.595Z,14.02
2023-05-04T18:14:24.178Z,14.07
2023-05-04T18:17:28.628Z,14.06
2023-05-04T18:20:31.594Z,13.93
2023-05-04T18:23:34.283Z,13.78
2023-05-04T18:26:36.740Z,13.76
2023-05-04T18:29:39.253Z,13.87
2023-05-04T18:32:41.753Z,13.80
2023-05-04T18:35:44.428Z,13.69
2023-05-04T18:38:51.728Z,13.71
2023-05-04T18:41:54.179Z,13.66
2023-05-04T18:44:56.886Z,13.58
2023-05-04T18:47:59.443Z,13.56
2023-05-04T18:51:02.722Z,13.55
2023-05-04T18:54:05.386Z,13.65
2023-05-04T18:57:10.226Z,13.38
2023-05-04T19:00:14.013Z,13.23
2023-05-04T19:03:17.720Z,13.33
2023-05-04T19:06:20.271Z,13.42
2023-05-04T19:09:23.059Z,13.42
2023-05-04T19:12:25.528Z,13.46
2023-05-04T19:15:28.301Z,13.30
2023-05-04T19:18:30.930Z,13.40
2023-05-04T19:21:33.973Z,12.93
2023-05-04T19:24:37.784Z,13.26
2023-05-04T19:27:40.341Z,12.98
2023-05-04T19:30:43.935Z,13.08
2023-05-04T19:33:48.726Z,13.10
2023-05-04T19:36:51.674Z,13.05
2023-05-04T19:39:54.766Z,13.25
2023-05-04T19:42:57.340Z,13.27
2023-05-04T19:46:02.232Z,13.07
2023-05-04T19:49:04.751Z,12.92
2023-05-04T19:52:07.284Z,12.78
2023-05-04T19:55:10.136Z,12.59
2023-05-04T19:58:12.687Z,12.60
2023-05-04T20:01:16.020Z,12.58
2023-05-04T20:04:18.953Z,12.26
2023-05-04T20:07:21.682Z,12.49
2023-05-04T20:10:27.166Z,12.46
2023-05-04T20:13:29.688Z,12.26
2023-05-04T20:16:32.446Z,12.36
2023-05-04T20:19:35.020Z,12.42
2023-05-04T20:22:38.435Z,12.26
2023-05-04T20:25:42.962Z,12.42
2023-05-04T20:28:45.454Z,12.24
2023-05-04T20:31:48.181Z,12.30
2023-05-04T20:34:50.628Z,12.15
2023-05-04T20:37:53.256Z,12.00
2023-05-04T20:40:57.870Z,12.00
2023-05-04T20:44:00.320Z,11.97
2023-05-04T20:47:02.771Z,11.94
2023-05-04T20:50:08.027Z,11.97
2023-05-04T20:53:11.559Z,11.89
2023-05-04T20:56:14.757Z,11.64
2023-05-04T20:59:17.326Z,11.80
2023-05-04T21:02:19.879Z,11.74
2023-05-04T21:05:22.337Z,11.51
2023-05-04T21:08:25.186Z,11.44
2023-05-04T21:11:28.014Z,11.52
2023-05-04T21:14:30.842Z,11.38
2023-05-04T21:17:33.264Z,11.48
2023-05-04T21:20:35.769Z,11.56
2023-05-04T21:23:38.240Z,11.31
2023-05-04T21:26:41.340Z,11.44
2023-05-04T21:29:43.973Z,11.39
2023-05-04T21:32:46.578Z,11.27
2023-05-04T21:35:49.014Z,10.99
2023-05-04T21:38:51.594Z,10.72
2023-05-04T21:41:54.227Z,10.88
2023-05-04T21:44:57.464Z,11.06
2023-05-04T21:48:02.410Z,10.87
2023-05-04T21:51:06.818Z,11.09
2023-05-04T21:54:09.208Z,11.18
2023-05-04T21:57:11.736Z,11.04
2023-05-04T22:00:18.178Z,10.97
2023-05-04T22:03:21.206Z,10.81
2023-05-04T22:06:24.588Z,10.93
2023-05-04T22:09:28.345Z,10.78
2023-05-04T22:12:31.336Z,10.93
2023-05-04T22:15:46.307Z,10.90
2023-05-04T22:18:52.190Z,11.18
2023-05-04T22:21:55.327Z,11.05
2023-05-04T22:24:57.812Z,11.05
2023-05-04T22:28:00.514Z,11.04
2023-05-04T22:31:02.960Z,10.88
2023-05-04T22:34:05.614Z,10.81
2023-05-04T22:37:08.059Z,11.02
2023-05-04T22:40:10.721Z,11.02
2023-05-04T22:43:13.122Z,11.08
2023-05-04T22:46:16.898Z,11.13
2023-05-04T22:49:19.857Z,11.26
2023-05-04T22:52:23.164Z,10.95
2023-05-04T22:55:25.622Z,10.76
2023-05-04T22:58:28.137Z,10.76
2023-05-04T23:01:30.910Z,10.59
2023-05-04T23:04:33.878Z,10.30
2023-05-04T23:07:36.294Z,9.97
2023-05-04T23:10:38.650Z,9.71
2023-05-04T23:13:41.775Z,9.65
2023-05-04T23:16:44.719Z,9.46
2023-05-04T23:19:47.509Z,9.26
2023-05-04T23:22:50.086Z,9.44
2023-05-04T23:25:53.047Z,9.25
2023-05-04T23:28:55.467Z,9.32
2023-05-04T23:31:58.253Z,9.09
2023-05-04T23:35:00.687Z,9.17
2023-05-04T23:38:04.003Z,8.95
2023-05-04T23:41:06.499Z,9.10
2023-05-04T23:44:09.064Z,8.90
2023-05-04T23:47:11.497Z,8.93
2023-05-04T23:50:14.118Z,8.67
2023-05-04T23:53:16.554Z,8.68
2023-05-04T23:56:19.227Z,8.61
2023-05-04T23:59:22.063Z,9.13
